• Join FlightAware (Why Join?)
  • Login
  • US Flag 
04:28PM EDT


 

Airport Tracker/Info


-or-


 

Live Flight TrackerFlight Track Log ✈ RPA3196 ✈ 16-May-2013 ✈ KPHL - KBTV

Flight Track Log - Related Links

Times and Time Zones

All times are in EDT time to prevent confusion due to time zone crossing. See the RPA3196 flight status page for this flight to view local times or setup timezone preferences in your user account.

Time Position Orientation Groundspeed Altitude Reporting Facility
EDT Latitude Longitude Course Direction KTS MPH feet Rate Location/Type
09:45AM 39.8667 -75.2833 307° West 157 181 900  Level Philadelphia TRACON
09:46AM 39.8500 -75.3167 237° Southwest 165 190 1,700 1,680 Climbing Philadelphia TRACON
09:47AM 40.1303 -75.4803 323° Northwest  Level FlightAware Approximate
09:47AM 39.8333 -75.4000 255° West 254 292 3,700  Level Philadelphia TRACON
09:48AM 40.2209 -75.5563 311° West  Level FlightAware Approximate
09:48AM 39.8833 -75.4500 323° Northwest 258 297 7,300  Level Philadelphia TRACON
09:49AM 40.2938 -75.6656 311° West  Level FlightAware Approximate
09:49AM 39.9667 -75.4667 351° North 279 321 10,000  Level Philadelphia TRACON
09:50AM 40.3622 -75.7797 307° West  Level FlightAware Approximate
09:50AM 40.1094 -75.5258 342° North 349 402 13,000  Level New York Center
09:51AM 40.1936 -75.5533 346° North 325 374 13,600 1,380 Climbing New York Center
09:52AM 40.2558 -75.6147 323° Northwest 318 366 15,900 1,620 Climbing New York Center
09:53AM 40.3208 -75.7064 313° West 308 354 17,000 720 Climbing New York Center
09:54AM 40.3758 -75.7894 311° West 308 354 17,400 1,200 Climbing New York Center
09:55AM 40.4286 -75.8694 311° West 308 354 19,400 1,980 Climbing New York Center
09:56AM 40.4550 -75.9781 288° West 315 362 21,400 1,260 Climbing New York Center
09:57AM 40.4708 -76.0936 280° West 310 357 22,000 780 Climbing New York Center
09:58AM 40.4906 -76.2100 283° West 320 368 23,000 1,260 Climbing New York Center
09:59AM 40.5781 -76.2525 340° North 292 336 24,600 1,560 Climbing New York Center
10:00AM 40.6872 -76.2336 North 308 354 26,200 1,200 Climbing New York Center
10:01AM 40.8006 -76.2208 North 357 411 27,000 360 Climbing New York Center
10:02AM 40.9097 -76.2022 North 386 444 27,000  Level New York Center
10:03AM 41.0228 -76.1919 North 400 460 27,000  Level New York Center
10:04AM 41.1286 -76.1975 358° North 400 460 27,000  Level New York Center
10:05AM 41.2389 -76.2036 358° North 394 453 27,000  Level New York Center
10:06AM 41.3614 -76.2081 358° North 389 448 27,000  Level New York Center
10:09AM 41.6206 -76.2117 359° North 386 444 27,000  Level Boston Center
10:10AM 41.7189 -76.1339 31° Northeast 386 444 27,000  Level Boston Center
10:11AM 41.7861 -75.9875 58° Northeast 400 460 27,000  Level Boston Center
10:12AM 41.8492 -75.8378 60° Northeast 438 504 27,000  Level Boston Center
10:13AM 41.9142 -75.6878 60° Northeast 444 511 27,000  Level Boston Center
10:14AM 42.0067 -75.5778 41° Northeast 437 503 27,000  Level Boston Center
10:15AM 42.1053 -75.4847 35° Northeast 432 497 27,000  Level Boston Center
10:16AM 42.2056 -75.3917 34° Northeast 432 497 27,000  Level Boston Center
10:17AM 42.3017 -75.3008 35° Northeast 432 497 27,000  Level Boston Center
10:18AM 42.4022 -75.2069 35° Northeast 432 497 27,000  Level Boston Center
10:19AM 42.5025 -75.1100 35° Northeast 432 497 27,000  Level Boston Center
10:20AM 42.6025 -75.0156 35° Northeast 432 497 27,000  Level Boston Center
10:21AM 42.7047 -74.9181 35° Northeast 439 505 27,000  Level Boston Center
10:22AM 42.8047 -74.8200 36° Northeast 439 505 27,000  Level Boston Center
10:23AM 42.9047 -74.7247 35° Northeast 439 505 27,000  Level Boston Center
10:24AM 43.0067 -74.6236 36° Northeast 444 511 27,000  Level Boston Center
10:25AM 43.1086 -74.5247 35° Northeast 444 511 27,000  Level Boston Center
10:26AM 43.2125 -74.4228 36° Northeast 444 511 27,000 -540 Level Boston Center
10:27AM 43.3144 -74.3233 35° Northeast 444 511 26,000 -1,500 Descending Boston Center
10:28AM 43.4117 -74.2264 36° Northeast 444 511 24,000 -1,020 Descending Boston Center
10:29AM 43.5092 -74.1319 35° Northeast 439 505 24,000 -300 Level Boston Center
10:30AM 43.6064 -74.0342 36° Northeast 439 505 23,500 -1,380 Descending Boston Center
10:31AM 43.6994 -73.9419 36° Northeast 427 491 21,300 -2,460 Descending Boston Center
10:32AM 43.7881 -73.8494 37° Northeast 414 476 18,600 -2,640 Descending Boston Center
10:33AM 43.8767 -73.7592 36° Northeast 403 464 16,100 -2,700 Descending Boston Center
10:34AM 43.9589 -73.6775 36° Northeast 377 434 13,300 -2,400 Descending Boston Center
10:35AM 44.0389 -73.5981 36° Northeast 356 410 11,400 -1,200 Descending Boston Center
10:36AM 44.1125 -73.5244 36° Northeast 338 389 11,000 -1,020 Descending Boston Center
10:37AM 44.1778 -73.4561 37° Northeast 304 350 9,400 -1,800 Descending Boston Center
10:38AM 44.2450 -73.3878 36° Northeast 293 337 7,500 -2,280 Descending Boston Center
10:39AM 44.3100 -73.3308 32° Northeast 293 337 4,900 -2,340 Descending Boston Center
10:40AM 44.3828 -73.3347 358° North 259 298 2,900 -960 Descending Boston Center
10:41AM 44.4514 -73.3533 349° North 254 292 3,000 -60 Climbing Boston Center
10:42AM 44.5158 -73.3686 350° North 248 285 2,800 -420 Descending Boston Center
10:43AM 44.5661 -73.3550 11° North 206 237 2,200 -300 Descending Boston Center
10:44AM 44.5439 -73.2703 110° East 128 147 2,200  Level Boston Center